sensor_id;sensor_type;location;lat;lon;timestamp;temperature;humidity
46720;DHT22;32452;51.382;-0.002;2022-08-27T00:00:14;18.00;83.20
46720;DHT22;32452;51.382;-0.002;2022-08-27T00:03:00;17.90;83.50
46720;DHT22;32452;51.382;-0.002;2022-08-27T00:05:47;17.90;83.70
46720;DHT22;32452;51.382;-0.002;2022-08-27T00:08:33;17.80;83.90
46720;DHT22;32452;51.382;-0.002;2022-08-27T00:11:20;17.80;84.30
46720;DHT22;32452;51.382;-0.002;2022-08-27T00:14:06;17.70;84.50
46720;DHT22;32452;51.382;-0.002;2022-08-27T00:16:52;17.70;85.00
46720;DHT22;32452;51.382;-0.002;2022-08-27T00:19:38;17.70;85.40
46720;DHT22;32452;51.382;-0.002;2022-08-27T00:22:24;17.60;85.50
46720;DHT22;32452;51.382;-0.002;2022-08-27T00:25:12;17.60;85.80
46720;DHT22;32452;51.382;-0.002;2022-08-27T00:27:57;17.60;86.00
46720;DHT22;32452;51.382;-0.002;2022-08-27T00:30:43;17.50;86.10
46720;DHT22;32452;51.382;-0.002;2022-08-27T00:33:28;17.50;86.40
46720;DHT22;32452;51.382;-0.002;2022-08-27T00:36:15;17.50;86.70
46720;DHT22;32452;51.382;-0.002;2022-08-27T00:39:00;17.40;86.90
46720;DHT22;32452;51.382;-0.002;2022-08-27T00:41:46;17.40;87.20
46720;DHT22;32452;51.382;-0.002;2022-08-27T00:44:33;17.30;87.40
46720;DHT22;32452;51.382;-0.002;2022-08-27T00:47:23;17.30;87.70
46720;DHT22;32452;51.382;-0.002;2022-08-27T00:50:18;17.20;87.90
46720;DHT22;32452;51.382;-0.002;2022-08-27T00:53:08;17.20;88.20
46720;DHT22;32452;51.382;-0.002;2022-08-27T00:56:01;17.20;88.40
46720;DHT22;32452;51.382;-0.002;2022-08-27T00:58:50;17.10;88.50
46720;DHT22;32452;51.382;-0.002;2022-08-27T01:01:38;17.10;88.70
46720;DHT22;32452;51.382;-0.002;2022-08-27T01:07:35;17.10;88.90
46720;DHT22;32452;51.382;-0.002;2022-08-27T01:10:23;17.10;89.20
46720;DHT22;32452;51.382;-0.002;2022-08-27T01:13:12;17.00;89.40
46720;DHT22;32452;51.382;-0.002;2022-08-27T01:15:58;17.00;89.60
46720;DHT22;32452;51.382;-0.002;2022-08-27T01:18:44;17.00;89.70
46720;DHT22;32452;51.382;-0.002;2022-08-27T01:21:57;17.00;89.90
46720;DHT22;32452;51.382;-0.002;2022-08-27T01:24:46;16.90;89.80
46720;DHT22;32452;51.382;-0.002;2022-08-27T01:27:32;16.90;90.00
46720;DHT22;32452;51.382;-0.002;2022-08-27T01:30:19;16.80;90.00
46720;DHT22;32452;51.382;-0.002;2022-08-27T01:33:12;16.80;90.00
46720;DHT22;32452;51.382;-0.002;2022-08-27T01:36:01;16.80;90.10
46720;DHT22;32452;51.382;-0.002;2022-08-27T01:38:47;16.70;90.20
46720;DHT22;32452;51.382;-0.002;2022-08-27T01:41:33;16.70;90.20
46720;DHT22;32452;51.382;-0.002;2022-08-27T01:44:19;16.70;90.20
46720;DHT22;32452;51.382;-0.002;2022-08-27T01:47:05;16.60;90.20
46720;DHT22;32452;51.382;-0.002;2022-08-27T01:49:50;16.60;90.30
46720;DHT22;32452;51.382;-0.002;2022-08-27T01:52:36;16.50;90.40
46720;DHT22;32452;51.382;-0.002;2022-08-27T01:55:24;16.50;90.50
46720;DHT22;32452;51.382;-0.002;2022-08-27T01:58:10;16.50;90.60
46720;DHT22;32452;51.382;-0.002;2022-08-27T02:01:03;16.40;90.60
46720;DHT22;32452;51.382;-0.002;2022-08-27T02:03:49;16.40;90.70
46720;DHT22;32452;51.382;-0.002;2022-08-27T02:06:35;16.40;90.80
46720;DHT22;32452;51.382;-0.002;2022-08-27T02:09:20;16.30;90.80
46720;DHT22;32452;51.382;-0.002;2022-08-27T02:12:07;16.30;91.00
46720;DHT22;32452;51.382;-0.002;2022-08-27T02:14:52;16.30;91.00
46720;DHT22;32452;51.382;-0.002;2022-08-27T02:17:38;16.30;91.10
46720;DHT22;32452;51.382;-0.002;2022-08-27T02:20:24;16.20;91.10
46720;DHT22;32452;51.382;-0.002;2022-08-27T02:23:14;16.20;91.20
46720;DHT22;32452;51.382;-0.002;2022-08-27T02:26:00;16.10;91.20
46720;DHT22;32452;51.382;-0.002;2022-08-27T02:28:45;16.10;91.30
46720;DHT22;32452;51.382;-0.002;2022-08-27T02:31:32;16.10;91.40
46720;DHT22;32452;51.382;-0.002;2022-08-27T02:34:18;16.00;91.40
46720;DHT22;32452;51.382;-0.002;2022-08-27T02:37:03;16.00;91.50
46720;DHT22;32452;51.382;-0.002;2022-08-27T02:39:50;16.00;91.60
46720;DHT22;32452;51.382;-0.002;2022-08-27T02:42:36;15.90;91.70
46720;DHT22;32452;51.382;-0.002;2022-08-27T02:45:22;15.90;91.70
46720;DHT22;32452;51.382;-0.002;2022-08-27T02:48:08;15.90;91.80
46720;DHT22;32452;51.382;-0.002;2022-08-27T02:50:54;15.90;91.80
46720;DHT22;32452;51.382;-0.002;2022-08-27T02:53:40;15.90;91.90
46720;DHT22;32452;51.382;-0.002;2022-08-27T02:56:26;15.80;92.00
46720;DHT22;32452;51.382;-0.002;2022-08-27T02:59:12;15.80;92.10
46720;DHT22;32452;51.382;-0.002;2022-08-27T03:01:57;15.80;92.20
46720;DHT22;32452;51.382;-0.002;2022-08-27T03:04:44;15.80;92.20
46720;DHT22;32452;51.382;-0.002;2022-08-27T03:07:30;15.80;92.20
46720;DHT22;32452;51.382;-0.002;2022-08-27T03:10:17;15.80;92.30
46720;DHT22;32452;51.382;-0.002;2022-08-27T03:13:03;15.80;92.30
46720;DHT22;32452;51.382;-0.002;2022-08-27T03:15:48;15.80;92.30
46720;DHT22;32452;51.382;-0.002;2022-08-27T03:18:35;15.80;92.30
46720;DHT22;32452;51.382;-0.002;2022-08-27T03:21:24;15.80;92.30
46720;DHT22;32452;51.382;-0.002;2022-08-27T03:24:09;15.80;92.40
46720;DHT22;32452;51.382;-0.002;2022-08-27T03:26:58;15.80;92.30
46720;DHT22;32452;51.382;-0.002;2022-08-27T03:29:44;15.80;92.30
46720;DHT22;32452;51.382;-0.002;2022-08-27T03:32:29;15.80;92.40
46720;DHT22;32452;51.382;-0.002;2022-08-27T03:35:15;15.80;92.40
46720;DHT22;32452;51.382;-0.002;2022-08-27T03:38:01;15.70;92.40
46720;DHT22;32452;51.382;-0.002;2022-08-27T03:40:47;15.80;92.40
46720;DHT22;32452;51.382;-0.002;2022-08-27T03:43:33;15.70;92.50
46720;DHT22;32452;51.382;-0.002;2022-08-27T03:46:20;15.70;92.40
46720;DHT22;32452;51.382;-0.002;2022-08-27T03:49:07;15.70;92.50
46720;DHT22;32452;51.382;-0.002;2022-08-27T03:51:57;15.70;92.50
46720;DHT22;32452;51.382;-0.002;2022-08-27T03:54:43;15.70;92.50
46720;DHT22;32452;51.382;-0.002;2022-08-27T03:57:29;15.70;92.60
46720;DHT22;32452;51.382;-0.002;2022-08-27T04:00:14;15.70;92.70
46720;DHT22;32452;51.382;-0.002;2022-08-27T04:03:00;15.60;92.70
46720;DHT22;32452;51.382;-0.002;2022-08-27T04:05:51;15.50;92.80
46720;DHT22;32452;51.382;-0.002;2022-08-27T04:08:37;15.50;93.00
46720;DHT22;32452;51.382;-0.002;2022-08-27T04:11:22;15.50;93.10
46720;DHT22;32452;51.382;-0.002;2022-08-27T04:14:08;15.50;93.10
46720;DHT22;32452;51.382;-0.002;2022-08-27T04:17:11;15.50;93.20
46720;DHT22;32452;51.382;-0.002;2022-08-27T04:19:57;15.50;93.10
46720;DHT22;32452;51.382;-0.002;2022-08-27T04:23:07;15.50;93.20
46720;DHT22;32452;51.382;-0.002;2022-08-27T04:25:53;15.50;93.20
46720;DHT22;32452;51.382;-0.002;2022-08-27T04:28:38;15.50;93.30
46720;DHT22;32452;51.382;-0.002;2022-08-27T04:31:24;15.40;93.40
46720;DHT22;32452;51.382;-0.002;2022-08-27T04:34:10;15.50;93.50
46720;DHT22;32452;51.382;-0.002;2022-08-27T04:36:56;15.50;93.60
46720;DHT22;32452;51.382;-0.002;2022-08-27T04:39:41;15.50;93.60
46720;DHT22;32452;51.382;-0.002;2022-08-27T04:42:28;15.50;93.60
46720;DHT22;32452;51.382;-0.002;2022-08-27T04:45:15;15.50;93.60
46720;DHT22;32452;51.382;-0.002;2022-08-27T04:48:01;15.50;93.70
46720;DHT22;32452;51.382;-0.002;2022-08-27T04:50:47;15.50;93.80
46720;DHT22;32452;51.382;-0.002;2022-08-27T04:53:33;15.40;93.80
46720;DHT22;32452;51.382;-0.002;2022-08-27T04:56:20;15.40;93.90
46720;DHT22;32452;51.382;-0.002;2022-08-27T04:59:08;15.50;93.90
46720;DHT22;32452;51.382;-0.002;2022-08-27T05:01:54;15.50;94.00
46720;DHT22;32452;51.382;-0.002;2022-08-27T05:04:41;15.50;94.30
46720;DHT22;32452;51.382;-0.002;2022-08-27T05:07:26;15.50;93.90
46720;DHT22;32452;51.382;-0.002;2022-08-27T05:10:12;15.50;93.90
46720;DHT22;32452;51.382;-0.002;2022-08-27T05:12:57;15.50;93.90
46720;DHT22;32452;51.382;-0.002;2022-08-27T05:15:45;15.60;94.00
46720;DHT22;32452;51.382;-0.002;2022-08-27T05:18:31;15.60;94.00
46720;DHT22;32452;51.382;-0.002;2022-08-27T05:21:28;15.60;93.90
46720;DHT22;32452;51.382;-0.002;2022-08-27T05:24:16;15.60;93.90
46720;DHT22;32452;51.382;-0.002;2022-08-27T05:27:02;15.70;93.90
46720;DHT22;32452;51.382;-0.002;2022-08-27T05:29:48;15.70;93.90
46720;DHT22;32452;51.382;-0.002;2022-08-27T05:32:33;15.70;93.80
46720;DHT22;32452;51.382;-0.002;2022-08-27T05:35:19;15.70;93.90
46720;DHT22;32452;51.382;-0.002;2022-08-27T05:38:05;15.70;93.90
46720;DHT22;32452;51.382;-0.002;2022-08-27T05:41:00;15.70;93.90
46720;DHT22;32452;51.382;-0.002;2022-08-27T05:43:47;15.70;93.90
46720;DHT22;32452;51.382;-0.002;2022-08-27T05:46:37;15.80;93.90
46720;DHT22;32452;51.382;-0.002;2022-08-27T05:49:23;15.80;93.90
46720;DHT22;32452;51.382;-0.002;2022-08-27T05:52:10;15.90;93.80
46720;DHT22;32452;51.382;-0.002;2022-08-27T05:54:55;15.90;93.80
46720;DHT22;32452;51.382;-0.002;2022-08-27T05:57:41;16.00;93.70
46720;DHT22;32452;51.382;-0.002;2022-08-27T06:00:26;16.00;93.60
46720;DHT22;32452;51.382;-0.002;2022-08-27T06:03:36;16.10;93.60
46720;DHT22;32452;51.382;-0.002;2022-08-27T06:06:22;16.10;93.50
46720;DHT22;32452;51.382;-0.002;2022-08-27T06:09:09;16.10;93.50
46720;DHT22;32452;51.382;-0.002;2022-08-27T06:11:57;16.20;93.60
46720;DHT22;32452;51.382;-0.002;2022-08-27T06:14:43;16.30;93.60
46720;DHT22;32452;51.382;-0.002;2022-08-27T06:17:29;16.30;93.50
46720;DHT22;32452;51.382;-0.002;2022-08-27T06:20:15;16.40;93.60
46720;DHT22;32452;51.382;-0.002;2022-08-27T06:23:01;16.40;93.80
46720;DHT22;32452;51.382;-0.002;2022-08-27T06:25:46;16.50;93.60
46720;DHT22;32452;51.382;-0.002;2022-08-27T06:28:32;16.60;93.50
46720;DHT22;32452;51.382;-0.002;2022-08-27T06:31:26;16.60;93.50
46720;DHT22;32452;51.382;-0.002;2022-08-27T06:34:12;16.60;93.40
46720;DHT22;32452;51.382;-0.002;2022-08-27T06:36:57;16.70;93.50
46720;DHT22;32452;51.382;-0.002;2022-08-27T06:39:43;16.70;93.50
46720;DHT22;32452;51.382;-0.002;2022-08-27T06:42:29;16.70;93.40
46720;DHT22;32452;51.382;-0.002;2022-08-27T06:45:19;16.80;93.50
46720;DHT22;32452;51.382;-0.002;2022-08-27T06:48:04;16.80;93.40
46720;DHT22;32452;51.382;-0.002;2022-08-27T06:50:50;16.80;93.40
46720;DHT22;32452;51.382;-0.002;2022-08-27T06:53:35;16.80;93.40
46720;DHT22;32452;51.382;-0.002;2022-08-27T06:56:21;16.80;93.50
46720;DHT22;32452;51.382;-0.002;2022-08-27T06:59:09;16.90;93.70
46720;DHT22;32452;51.382;-0.002;2022-08-27T07:01:56;17.10;93.50
46720;DHT22;32452;51.382;-0.002;2022-08-27T07:04:42;17.40;93.20
46720;DHT22;32452;51.382;-0.002;2022-08-27T07:07:28;17.50;93.00
46720;DHT22;32452;51.382;-0.002;2022-08-27T07:10:22;17.50;92.80
46720;DHT22;32452;51.382;-0.002;2022-08-27T07:13:08;17.60;92.80
46720;DHT22;32452;51.382;-0.002;2022-08-27T07:15:54;17.70;92.70
46720;DHT22;32452;51.382;-0.002;2022-08-27T07:18:43;17.70;92.70
46720;DHT22;32452;51.382;-0.002;2022-08-27T07:21:29;17.80;92.70
46720;DHT22;32452;51.382;-0.002;2022-08-27T07:24:15;17.90;92.70
46720;DHT22;32452;51.382;-0.002;2022-08-27T07:27:02;17.90;92.60
46720;DHT22;32452;51.382;-0.002;2022-08-27T07:29:47;18.10;92.40
46720;DHT22;32452;51.382;-0.002;2022-08-27T07:32:33;18.10;92.50
46720;DHT22;32452;51.382;-0.002;2022-08-27T07:35:19;18.30;92.20
46720;DHT22;32452;51.382;-0.002;2022-08-27T07:38:04;18.50;92.00
46720;DHT22;32452;51.382;-0.002;2022-08-27T07:40:51;18.90;91.70
46720;DHT22;32452;51.382;-0.002;2022-08-27T07:43:37;19.30;91.10
46720;DHT22;32452;51.382;-0.002;2022-08-27T07:46:43;19.50;90.50
46720;DHT22;32452;51.382;-0.002;2022-08-27T07:49:33;19.60;90.00
46720;DHT22;32452;51.382;-0.002;2022-08-27T07:52:19;19.80;89.40
46720;DHT22;32452;51.382;-0.002;2022-08-27T07:55:11;20.00;88.70
46720;DHT22;32452;51.382;-0.002;2022-08-27T07:57:56;20.30;88.50
46720;DHT22;32452;51.382;-0.002;2022-08-27T08:00:43;20.80;86.80
46720;DHT22;32452;51.382;-0.002;2022-08-27T08:03:29;21.50;84.40
46720;DHT22;32452;51.382;-0.002;2022-08-27T08:06:16;22.30;81.50
46720;DHT22;32452;51.382;-0.002;2022-08-27T08:09:15;22.90;78.90
46720;DHT22;32452;51.382;-0.002;2022-08-27T08:12:01;23.90;75.50
46720;DHT22;32452;51.382;-0.002;2022-08-27T08:14:46;24.80;71.40
46720;DHT22;32452;51.382;-0.002;2022-08-27T08:17:34;25.70;67.40
46720;DHT22;32452;51.382;-0.002;2022-08-27T08:20:20;26.50;64.10
46720;DHT22;32452;51.382;-0.002;2022-08-27T08:23:20;27.20;61.50
46720;DHT22;32452;51.382;-0.002;2022-08-27T08:26:06;27.70;59.30
46720;DHT22;32452;51.382;-0.002;2022-08-27T08:28:52;28.20;57.40
46720;DHT22;32452;51.382;-0.002;2022-08-27T08:31:42;28.40;55.80
46720;DHT22;32452;51.382;-0.002;2022-08-27T08:34:31;28.70;54.80
46720;DHT22;32452;51.382;-0.002;2022-08-27T08:37:17;28.90;54.10
46720;DHT22;32452;51.382;-0.002;2022-08-27T08:40:04;29.20;52.80
46720;DHT22;32452;51.382;-0.002;2022-08-27T08:42:53;29.50;51.50
46720;DHT22;32452;51.382;-0.002;2022-08-27T08:45:41;29.70;50.30
46720;DHT22;32452;51.382;-0.002;2022-08-27T08:48:28;29.90;49.60
46720;DHT22;32452;51.382;-0.002;2022-08-27T08:51:29;30.20;48.60
46720;DHT22;32452;51.382;-0.002;2022-08-27T08:54:22;30.30;47.10
46720;DHT22;32452;51.382;-0.002;2022-08-27T08:57:29;30.40;46.90
46720;DHT22;32452;51.382;-0.002;2022-08-27T09:00:15;30.60;46.10
46720;DHT22;32452;51.382;-0.002;2022-08-27T09:03:01;30.70;46.30
46720;DHT22;32452;51.382;-0.002;2022-08-27T09:06:00;31.00;45.10
46720;DHT22;32452;51.382;-0.002;2022-08-27T09:08:46;31.40;44.30
46720;DHT22;32452;51.382;-0.002;2022-08-27T09:14:41;31.50;43.40
46720;DHT22;32452;51.382;-0.002;2022-08-27T09:17:30;31.80;42.50
46720;DHT22;32452;51.382;-0.002;2022-08-27T09:20:20;32.00;43.00
46720;DHT22;32452;51.382;-0.002;2022-08-27T09:23:16;32.30;41.60
46720;DHT22;32452;51.382;-0.002;2022-08-27T09:26:14;32.40;43.00
46720;DHT22;32452;51.382;-0.002;2022-08-27T09:29:04;32.50;41.80
46720;DHT22;32452;51.382;-0.002;2022-08-27T09:32:08;32.50;40.60
46720;DHT22;32452;51.382;-0.002;2022-08-27T09:34:59;32.50;39.80
46720;DHT22;32452;51.382;-0.002;2022-08-27T09:37:47;32.50;39.50
46720;DHT22;32452;51.382;-0.002;2022-08-27T09:40:47;32.30;39.60
46720;DHT22;32452;51.382;-0.002;2022-08-27T09:43:33;32.40;38.50
46720;DHT22;32452;51.382;-0.002;2022-08-27T09:46:23;32.30;38.90
46720;DHT22;32452;51.382;-0.002;2022-08-27T09:49:15;32.20;38.50
46720;DHT22;32452;51.382;-0.002;2022-08-27T09:52:02;31.90;38.50
46720;DHT22;32452;51.382;-0.002;2022-08-27T09:54:47;31.70;38.90
46720;DHT22;32452;51.382;-0.002;2022-08-27T09:57:40;31.90;38.70
46720;DHT22;32452;51.382;-0.002;2022-08-27T10:00:35;32.10;38.60
46720;DHT22;32452;51.382;-0.002;2022-08-27T10:03:21;32.30;38.20
46720;DHT22;32452;51.382;-0.002;2022-08-27T10:06:09;32.40;38.30
46720;DHT22;32452;51.382;-0.002;2022-08-27T10:09:02;32.80;37.90
46720;DHT22;32452;51.382;-0.002;2022-08-27T10:12:26;33.10;37.00
46720;DHT22;32452;51.382;-0.002;2022-08-27T10:15:15;33.50;36.50
46720;DHT22;32452;51.382;-0.002;2022-08-27T10:18:11;33.00;37.00
46720;DHT22;32452;51.382;-0.002;2022-08-27T10:21:06;32.70;36.70
46720;DHT22;32452;51.382;-0.002;2022-08-27T10:27:19;31.50;37.60
46720;DHT22;32452;51.382;-0.002;2022-08-27T10:30:18;31.50;37.90
46720;DHT22;32452;51.382;-0.002;2022-08-27T10:33:15;32.00;37.50
46720;DHT22;32452;51.382;-0.002;2022-08-27T10:37:11;32.40;36.80
46720;DHT22;32452;51.382;-0.002;2022-08-27T10:47:08;32.70;35.40
46720;DHT22;32452;51.382;-0.002;2022-08-27T10:49:48;32.80;35.20
46720;DHT22;32452;51.382;-0.002;2022-08-27T10:52:46;32.70;34.80
46720;DHT22;32452;51.382;-0.002;2022-08-27T10:55:45;32.80;34.10
46720;DHT22;32452;51.382;-0.002;2022-08-27T11:05:28;32.60;34.20
46720;DHT22;32452;51.382;-0.002;2022-08-27T11:11:22;32.80;34.20
46720;DHT22;32452;51.382;-0.002;2022-08-27T11:14:32;32.30;34.50
46720;DHT22;32452;51.382;-0.002;2022-08-27T11:17:31;31.40;35.30
46720;DHT22;32452;51.382;-0.002;2022-08-27T11:20:27;30.80;36.00
46720;DHT22;32452;51.382;-0.002;2022-08-27T11:23:21;30.60;37.30
46720;DHT22;32452;51.382;-0.002;2022-08-27T11:26:11;30.60;36.60
46720;DHT22;32452;51.382;-0.002;2022-08-27T11:29:00;30.30;37.30
46720;DHT22;32452;51.382;-0.002;2022-08-27T11:31:52;30.50;37.20
46720;DHT22;32452;51.382;-0.002;2022-08-27T11:35:00;30.90;36.40
46720;DHT22;32452;51.382;-0.002;2022-08-27T11:41:53;31.70;34.50
46720;DHT22;32452;51.382;-0.002;2022-08-27T11:44:45;32.30;34.70
46720;DHT22;32452;51.382;-0.002;2022-08-27T11:47:31;32.60;34.50
46720;DHT22;32452;51.382;-0.002;2022-08-27T11:50:19;32.60;34.50
46720;DHT22;32452;51.382;-0.002;2022-08-27T11:53:06;32.20;34.60
46720;DHT22;32452;51.382;-0.002;2022-08-27T11:55:52;31.60;35.20
46720;DHT22;32452;51.382;-0.002;2022-08-27T11:58:37;31.00;35.70
46720;DHT22;32452;51.382;-0.002;2022-08-27T12:01:38;30.30;36.20
46720;DHT22;32452;51.382;-0.002;2022-08-27T12:10:16;28.60;38.40
46720;DHT22;32452;51.382;-0.002;2022-08-27T12:22:04;27.70;40.60
46720;DHT22;32452;51.382;-0.002;2022-08-27T12:24:55;27.60;41.00
46720;DHT22;32452;51.382;-0.002;2022-08-27T12:27:42;27.80;40.90
46720;DHT22;32452;51.382;-0.002;2022-08-27T12:30:46;27.90;40.80
46720;DHT22;32452;51.382;-0.002;2022-08-27T12:33:42;27.90;40.40
46720;DHT22;32452;51.382;-0.002;2022-08-27T12:36:30;27.60;40.30
46720;DHT22;32452;51.382;-0.002;2022-08-27T12:39:28;27.50;40.70
46720;DHT22;32452;51.382;-0.002;2022-08-27T12:42:19;27.60;41.20
46720;DHT22;32452;51.382;-0.002;2022-08-27T12:45:06;28.00;41.20
46720;DHT22;32452;51.382;-0.002;2022-08-27T12:47:52;28.60;40.90
46720;DHT22;32452;51.382;-0.002;2022-08-27T12:50:39;29.00;40.20
46720;DHT22;32452;51.382;-0.002;2022-08-27T12:53:46;29.40;38.70
46720;DHT22;32452;51.382;-0.002;2022-08-27T13:05:43;28.10;38.60
46720;DHT22;32452;51.382;-0.002;2022-08-27T13:08:31;27.70;39.00
46720;DHT22;32452;51.382;-0.002;2022-08-27T13:11:23;27.20;39.70
46720;DHT22;32452;51.382;-0.002;2022-08-27T13:14:17;26.80;40.00
46720;DHT22;32452;51.382;-0.002;2022-08-27T13:17:22;26.90;40.60
46720;DHT22;32452;51.382;-0.002;2022-08-27T13:20:19;27.20;40.60
46720;DHT22;32452;51.382;-0.002;2022-08-27T13:23:15;27.40;40.40
46720;DHT22;32452;51.382;-0.002;2022-08-27T13:26:07;27.60;40.20
46720;DHT22;32452;51.382;-0.002;2022-08-27T13:28:52;27.70;40.10
46720;DHT22;32452;51.382;-0.002;2022-08-27T13:31:38;27.80;40.20
46720;DHT22;32452;51.382;-0.002;2022-08-27T13:34:26;27.60;40.20
46720;DHT22;32452;51.382;-0.002;2022-08-27T13:37:25;27.50;40.30
46720;DHT22;32452;51.382;-0.002;2022-08-27T13:40:23;27.50;40.50
46720;DHT22;32452;51.382;-0.002;2022-08-27T13:43:12;27.50;40.20
46720;DHT22;32452;51.382;-0.002;2022-08-27T13:46:00;27.50;40.00
46720;DHT22;32452;51.382;-0.002;2022-08-27T13:48:48;27.70;39.90
46720;DHT22;32452;51.382;-0.002;2022-08-27T13:51:35;27.90;39.60
46720;DHT22;32452;51.382;-0.002;2022-08-27T13:54:21;27.90;39.60
46720;DHT22;32452;51.382;-0.002;2022-08-27T13:57:09;27.70;39.70
46720;DHT22;32452;51.382;-0.002;2022-08-27T14:00:06;27.60;39.90
46720;DHT22;32452;51.382;-0.002;2022-08-27T14:02:53;27.50;39.80
46720;DHT22;32452;51.382;-0.002;2022-08-27T14:05:46;27.30;40.40
46720;DHT22;32452;51.382;-0.002;2022-08-27T14:08:34;27.40;40.70
46720;DHT22;32452;51.382;-0.002;2022-08-27T14:11:24;27.40;41.10
46720;DHT22;32452;51.382;-0.002;2022-08-27T14:14:12;27.50;41.10
46720;DHT22;32452;51.382;-0.002;2022-08-27T14:17:00;27.50;41.30
46720;DHT22;32452;51.382;-0.002;2022-08-27T14:19:45;27.20;41.40
46720;DHT22;32452;51.382;-0.002;2022-08-27T14:22:34;27.10;41.80
46720;DHT22;32452;51.382;-0.002;2022-08-27T14:25:20;27.10;42.10
46720;DHT22;32452;51.382;-0.002;2022-08-27T14:28:06;27.20;42.10
46720;DHT22;32452;51.382;-0.002;2022-08-27T14:30:52;27.20;42.10
46720;DHT22;32452;51.382;-0.002;2022-08-27T14:33:38;27.30;41.90
46720;DHT22;32452;51.382;-0.002;2022-08-27T14:36:26;27.30;41.70
46720;DHT22;32452;51.382;-0.002;2022-08-27T14:39:12;27.40;41.80
46720;DHT22;32452;51.382;-0.002;2022-08-27T14:41:58;27.40;41.90
46720;DHT22;32452;51.382;-0.002;2022-08-27T14:44:45;27.40;42.00
46720;DHT22;32452;51.382;-0.002;2022-08-27T14:47:32;27.50;41.70
46720;DHT22;32452;51.382;-0.002;2022-08-27T14:50:18;27.40;41.80
46720;DHT22;32452;51.382;-0.002;2022-08-27T14:53:03;27.10;42.10
46720;DHT22;32452;51.382;-0.002;2022-08-27T14:55:49;26.80;42.60
46720;DHT22;32452;51.382;-0.002;2022-08-27T14:58:36;26.60;43.20
46720;DHT22;32452;51.382;-0.002;2022-08-27T15:01:23;26.30;43.50
46720;DHT22;32452;51.382;-0.002;2022-08-27T15:04:10;26.10;43.80
46720;DHT22;32452;51.382;-0.002;2022-08-27T15:06:57;25.90;43.90
46720;DHT22;32452;51.382;-0.002;2022-08-27T15:09:42;25.80;44.00
46720;DHT22;32452;51.382;-0.002;2022-08-27T15:12:28;25.70;44.10
46720;DHT22;32452;51.382;-0.002;2022-08-27T15:15:14;25.60;44.10
46720;DHT22;32452;51.382;-0.002;2022-08-27T15:18:00;25.60;44.10
46720;DHT22;32452;51.382;-0.002;2022-08-27T15:20:45;25.60;44.20
46720;DHT22;32452;51.382;-0.002;2022-08-27T15:23:31;25.60;44.90
46720;DHT22;32452;51.382;-0.002;2022-08-27T15:26:17;25.60;44.20
46720;DHT22;32452;51.382;-0.002;2022-08-27T15:29:02;25.70;44.40
46720;DHT22;32452;51.382;-0.002;2022-08-27T15:31:51;25.80;44.40
46720;DHT22;32452;51.382;-0.002;2022-08-27T15:34:37;25.80;44.50
46720;DHT22;32452;51.382;-0.002;2022-08-27T15:37:22;25.90;44.30
46720;DHT22;32452;51.382;-0.002;2022-08-27T15:40:09;25.90;44.40
46720;DHT22;32452;51.382;-0.002;2022-08-27T15:43:00;25.90;44.40
46720;DHT22;32452;51.382;-0.002;2022-08-27T15:45:46;25.80;44.40
46720;DHT22;32452;51.382;-0.002;2022-08-27T15:48:32;25.70;44.20
46720;DHT22;32452;51.382;-0.002;2022-08-27T15:51:25;25.60;44.20
46720;DHT22;32452;51.382;-0.002;2022-08-27T15:54:11;25.40;44.70
46720;DHT22;32452;51.382;-0.002;2022-08-27T15:56:57;25.30;44.80
46720;DHT22;32452;51.382;-0.002;2022-08-27T15:59:44;25.20;44.80
46720;DHT22;32452;51.382;-0.002;2022-08-27T16:02:30;25.10;44.80
46720;DHT22;32452;51.382;-0.002;2022-08-27T16:05:16;25.10;44.80
46720;DHT22;32452;51.382;-0.002;2022-08-27T16:08:02;25.00;44.80
46720;DHT22;32452;51.382;-0.002;2022-08-27T16:10:48;25.00;45.00
46720;DHT22;32452;51.382;-0.002;2022-08-27T16:13:33;25.00;45.00
46720;DHT22;32452;51.382;-0.002;2022-08-27T16:16:28;24.90;45.00
46720;DHT22;32452;51.382;-0.002;2022-08-27T16:19:16;24.80;45.10
46720;DHT22;32452;51.382;-0.002;2022-08-27T16:22:02;24.80;45.10
46720;DHT22;32452;51.382;-0.002;2022-08-27T16:24:48;24.70;45.20
46720;DHT22;32452;51.382;-0.002;2022-08-27T16:27:34;24.60;45.60
46720;DHT22;32452;51.382;-0.002;2022-08-27T16:30:21;24.60;46.00
46720;DHT22;32452;51.382;-0.002;2022-08-27T16:33:07;24.60;46.10
46720;DHT22;32452;51.382;-0.002;2022-08-27T16:35:54;24.60;46.20
46720;DHT22;32452;51.382;-0.002;2022-08-27T16:38:40;24.60;46.20
46720;DHT22;32452;51.382;-0.002;2022-08-27T16:41:27;24.50;46.40
46720;DHT22;32452;51.382;-0.002;2022-08-27T16:44:13;24.40;46.50
46720;DHT22;32452;51.382;-0.002;2022-08-27T16:47:00;24.30;46.80
46720;DHT22;32452;51.382;-0.002;2022-08-27T16:49:46;24.20;47.10
46720;DHT22;32452;51.382;-0.002;2022-08-27T16:52:51;24.10;47.40
46720;DHT22;32452;51.382;-0.002;2022-08-27T16:55:40;24.10;47.50
46720;DHT22;32452;51.382;-0.002;2022-08-27T16:58:29;24.00;47.50
46720;DHT22;32452;51.382;-0.002;2022-08-27T17:01:17;24.00;47.60
46720;DHT22;32452;51.382;-0.002;2022-08-27T17:04:04;24.00;47.70
46720;DHT22;32452;51.382;-0.002;2022-08-27T17:07:05;23.90;48.00
46720;DHT22;32452;51.382;-0.002;2022-08-27T17:09:51;23.90;48.60
46720;DHT22;32452;51.382;-0.002;2022-08-27T17:12:50;23.80;49.00
46720;DHT22;32452;51.382;-0.002;2022-08-27T17:15:36;23.70;49.50
46720;DHT22;32452;51.382;-0.002;2022-08-27T17:18:24;23.60;49.90
46720;DHT22;32452;51.382;-0.002;2022-08-27T17:21:12;23.50;50.30
46720;DHT22;32452;51.382;-0.002;2022-08-27T17:23:59;23.40;50.70
46720;DHT22;32452;51.382;-0.002;2022-08-27T17:26:46;23.20;51.20
46720;DHT22;32452;51.382;-0.002;2022-08-27T17:29:32;23.10;51.70
46720;DHT22;32452;51.382;-0.002;2022-08-27T17:32:17;23.00;52.20
46720;DHT22;32452;51.382;-0.002;2022-08-27T17:35:05;23.00;52.50
46720;DHT22;32452;51.382;-0.002;2022-08-27T17:37:51;22.90;52.80
46720;DHT22;32452;51.382;-0.002;2022-08-27T17:40:36;22.80;53.10
46720;DHT22;32452;51.382;-0.002;2022-08-27T17:43:22;22.80;53.40
46720;DHT22;32452;51.382;-0.002;2022-08-27T17:46:08;22.70;53.60
46720;DHT22;32452;51.382;-0.002;2022-08-27T17:48:54;22.70;53.80
46720;DHT22;32452;51.382;-0.002;2022-08-27T17:51:40;22.70;54.10
46720;DHT22;32452;51.382;-0.002;2022-08-27T17:54:28;22.60;54.30
46720;DHT22;32452;51.382;-0.002;2022-08-27T17:57:23;22.50;54.70
46720;DHT22;32452;51.382;-0.002;2022-08-27T18:00:11;22.50;55.20
46720;DHT22;32452;51.382;-0.002;2022-08-27T18:02:58;22.40;55.50
46720;DHT22;32452;51.382;-0.002;2022-08-27T18:05:46;22.30;55.80
46720;DHT22;32452;51.382;-0.002;2022-08-27T18:08:31;22.20;56.20
46720;DHT22;32452;51.382;-0.002;2022-08-27T18:11:17;22.10;56.30
46720;DHT22;32452;51.382;-0.002;2022-08-27T18:14:03;22.00;56.60
46720;DHT22;32452;51.382;-0.002;2022-08-27T18:16:49;21.90;57.60
46720;DHT22;32452;51.382;-0.002;2022-08-27T18:19:36;21.90;57.20
46720;DHT22;32452;51.382;-0.002;2022-08-27T18:22:26;21.80;57.50